Cynthiana, Indiana
Current Conditions -  °F | °C
As of 9:54 PM on Tuesday 27 Jan 2015 (Local Time) from KEVV Reporting Station
Overcast Overcast  
Wind Chill: 27°   Ceiling: 1700
Heat Index: 34°   Visibility: 10mi
Dew Point: 28°   Wind: 8mph
Humidity: 79%   Direction: 30°NNE
Pressure: 30.25"   Gusts: NA
Location:  38.19°N, 87.71°W
Report Text: KEVV 280354Z 03007KT 10SM OVC017 01/M02 A3025 RMK AO2 SLP249 T00111022
Loading
Personal Weather Stations






























Interactive Weather Map New forecast layout! Learn more

10-Day Weather Forecast

Advertisements
Track Severe Weather on mobile